Terminal Aerodrome Forecast
Issued by NWS

Home | Current Version | Previous Version | Text Only | Print | Product List | Glossary On
Versions: 1 2 3 4 5 6 7 8 9 10 11 12 13
000
FTUS45 KREV 171100
TAFMMH
TAF
KMMH 171120Z 1712/1812 VRB04KT P6SM FEW200
     FM171900 21015G28KT P6SM FEW200
     FM172300 25018G30KT P6SM SCT200
     FM180400 30010G20KT P6SM SKC
      AMD NOT SKED 1712/1714=

USA.gov is the U.S. government's official web portal to all federal, state and local government web resources and services.